Point Pleasant, PA (18950)

8:00 AM EDT on March 27, 2015 (GMT -0400)
Middleton Lane | | Change Station
CLOSE
Current Station
Personal Weather Station
Location: Carversville, PA
Elevation: 338 ft
Nearby Weather Stations

Elev 338 ft 40.39 °N, 75.04 °W | Updated 4 minutes ago

Overcast
Overcast
35.4 °F
Feels Like 35 °F
N
0.0
Wind Variable Wind from NW
Gusts 0.0 mph

Today
High -- | Low -- °F
--% Chance of Precip.
Yesterday
High -- | Low -- °F
Precip. -- in
6:52 AM 7:19 PM
First Quarter, 52% visible
Pressure 29.77 in
Visibility 7.0 miles
Clouds Overcast 11000 ft
Windchill 35 °F
Dew Point 34 °F
Humidity 93%
Rainfall 0.42 in
Snow Depth Not available.
UV 0 out of 12
Pollen 6.80 out of 12
Air Quality Not available.
Flu Activity Not available.
METAR KDYL 271154Z AUTO 36003KT 7SM OVC110 01/01 A2976 RMK AO2 RAB1056E04UPB04E08SNE1056 SLP081 P0001 60040 70094 T00110011 10056 20006 58002

More Conditions Fewer Conditions

Pressure 29.77 in
Visibility 7.0 miles
Clouds Overcast 11000 ft
Windchill 35 °F
Dew Point 34 °F
Humidity 93%
Rainfall 0.42 in
Snow Depth Not available.
UV 0 out of 12
Pollen 6.80 out of 12
Air Quality Not available.
Flu Activity Not available.
METAR KDYL 271154Z AUTO 36003KT 7SM OVC110 01/01 A2976 RMK AO2 RAB1056E04UPB04E08SNE1056 SLP081 P0001 60040 70094 T00110011 10056 20006 58002

More Conditions Fewer Conditions

Nowcast | as of 7:58 am EDT on March 27, 2015

Periods of rain showers will continue through 10 am across southeastern Pennsylvania, most of New Jersey and the northern Delmarva. Rainfall amounts arou8nd 1/10th of an inch are possible in spots.

×

10-Day Weather Forecast

Almanac

Astronomy

Mar. 27, 2015 Rise Set
Actual Time
Civil Twilight
Nautical Twilight
Astronomical Twilight
Moon
Length of Visible Light
Length of Day
Tomorrow will be .
, % of the Moon is Illuminated

Today's Extremes

State Highs State Lows

Community

WunderPhotos

Upload Photos

1,808,711 photos uploaded!

WunderBlogs® & News

Nearby

Air Quality

  Air Quality AQ Index Pollutant
Not available.

Snow Depth

Station Depth Elevation

Earthquake Activity

City Distance Mag. Time & Date
Minimum magnitude displayed is 2.5.

Coastal Water Temperatures

Place Temperature

Stations

Nearby Weather Stations

Station Location Temp. Windchill Dew Point Humidity Wind Precip. Elev Updated Type